createdAt,value
2017-10-02T00:01:04.494Z,17.30
2017-10-02T00:03:34.350Z,5.27
2017-10-02T00:06:04.654Z,7.40
2017-10-02T00:08:34.557Z,7.30
2017-10-02T00:11:04.427Z,7.63
2017-10-02T00:13:34.304Z,9.10
2017-10-02T00:16:04.170Z,5.47
2017-10-02T00:18:34.518Z,10.30
2017-10-02T00:21:04.392Z,12.60
2017-10-02T00:23:34.626Z,14.33
2017-10-02T00:26:04.482Z,10.07
2017-10-02T00:28:34.369Z,10.80
2017-10-02T00:31:04.253Z,7.13
2017-10-02T00:33:34.111Z,6.93
2017-10-02T00:36:04.351Z,5.67
2017-10-02T00:38:34.227Z,5.83
2017-10-02T00:41:04.567Z,11.50
2017-10-02T00:43:34.442Z,6.10
2017-10-02T00:46:04.325Z,10.27
2017-10-02T00:48:34.199Z,7.67
2017-10-02T00:51:04.095Z,7.80
2017-10-02T00:53:34.315Z,10.43
2017-10-02T00:56:04.174Z,6.37
2017-10-02T00:58:34.479Z,4.30
2017-10-02T01:01:04.367Z,8.43
2017-10-02T01:03:34.899Z,12.50
2017-10-02T01:06:04.751Z,11.60
2017-10-02T01:08:35.049Z,6.70
2017-10-02T01:11:04.913Z,6.60
2017-10-02T01:13:35.175Z,8.73
2017-10-02T01:16:05.051Z,9.80
2017-10-02T01:18:35.323Z,21.43
2017-10-02T01:21:05.199Z,8.60
2017-10-02T01:23:35.444Z,11.47
2017-10-02T01:26:05.299Z,7.33
2017-10-02T01:28:35.598Z,9.77
2017-10-02T01:31:05.466Z,7.20
2017-10-02T01:33:35.343Z,6.47
2017-10-02T01:36:05.209Z,6.00
2017-10-02T01:38:35.078Z,6.13
2017-10-02T01:41:05.405Z,7.90
2017-10-02T01:43:35.284Z,6.73
2017-10-02T01:46:05.508Z,8.93
2017-10-02T01:48:35.394Z,7.53
2017-10-02T01:51:05.663Z,6.93
2017-10-02T01:53:35.552Z,6.70
2017-10-02T01:56:05.443Z,8.37
2017-10-02T01:58:35.387Z,6.00
2017-10-02T02:01:05.281Z,8.93
2017-10-02T02:03:35.610Z,7.20
2017-10-02T02:06:05.471Z,5.20
2017-10-02T02:08:35.721Z,9.07
2017-10-02T02:11:05.592Z,7.93
2017-10-02T02:13:35.523Z,5.60
2017-10-02T02:16:05.397Z,11.43
2017-10-02T02:18:35.285Z,9.17
2017-10-02T02:21:05.617Z,5.50
2017-10-02T02:23:35.496Z,12.73
2017-10-02T02:26:05.370Z,4.73
2017-10-02T02:28:35.254Z,8.90
2017-10-02T02:31:05.183Z,7.30
2017-10-02T02:33:35.490Z,8.17
2017-10-02T02:36:05.455Z,7.03
2017-10-02T02:38:35.877Z,9.90
2017-10-02T02:41:05.735Z,8.27
2017-10-02T02:43:35.975Z,8.90
2017-10-02T02:46:05.835Z,8.97
2017-10-02T02:48:36.218Z,6.80
2017-10-02T02:51:06.107Z,7.43
2017-10-02T02:53:36.442Z,8.17
2017-10-02T02:56:06.319Z,7.17
2017-10-02T02:58:36.649Z,8.43
2017-10-02T03:01:06.525Z,8.83
2017-10-02T03:03:36.415Z,7.30
2017-10-02T03:06:06.324Z,7.40
2017-10-02T03:08:36.298Z,5.63
2017-10-02T03:11:06.548Z,5.43
2017-10-02T03:13:36.413Z,6.80
2017-10-02T03:16:06.705Z,13.73
2017-10-02T03:18:36.584Z,9.53
2017-10-02T03:21:06.469Z,4.10
2017-10-02T03:23:36.350Z,7.93
2017-10-02T03:26:06.206Z,6.97
2017-10-02T03:28:36.453Z,5.63
2017-10-02T03:31:06.342Z,7.23
2017-10-02T03:33:36.698Z,10.10
2017-10-02T03:36:06.587Z,7.83
2017-10-02T03:38:36.489Z,13.00
2017-10-02T03:41:06.418Z,10.10
2017-10-02T03:43:36.294Z,6.97
2017-10-02T03:46:06.797Z,10.17
2017-10-02T03:48:36.678Z,5.53
2017-10-02T03:51:07.022Z,7.20
2017-10-02T03:53:36.894Z,4.30
2017-10-02T03:56:07.260Z,7.90
2017-10-02T03:58:37.141Z,5.93
2017-10-02T04:01:08.415Z,8.33
2017-10-02T04:03:38.299Z,7.47
2017-10-02T04:06:08.551Z,6.10
2017-10-02T04:08:38.437Z,8.30
2017-10-02T04:11:08.349Z,5.33
2017-10-02T04:13:38.213Z,4.23
2017-10-02T04:16:08.092Z,4.70
2017-10-02T04:18:38.429Z,8.90
2017-10-02T04:21:08.315Z,9.00
2017-10-02T04:23:38.748Z,6.70
2017-10-02T04:26:08.888Z,7.43
2017-10-02T04:28:39.199Z,13.50
2017-10-02T04:31:09.091Z,8.50
2017-10-02T04:33:39.322Z,7.90
2017-10-02T04:36:09.197Z,11.33
2017-10-02T04:38:39.470Z,7.50
2017-10-02T04:41:09.342Z,8.50
2017-10-02T04:43:39.610Z,8.40
2017-10-02T04:46:09.497Z,8.73
2017-10-02T04:48:39.398Z,10.80
2017-10-02T04:51:09.288Z,17.27
2017-10-02T04:53:39.166Z,10.80
2017-10-02T04:56:09.476Z,9.60
2017-10-02T04:58:39.390Z,8.07
2017-10-02T05:01:09.736Z,6.43
2017-10-02T05:03:39.607Z,10.43
2017-10-02T05:06:09.522Z,16.17
2017-10-02T05:08:39.457Z,7.50
2017-10-02T05:11:09.325Z,7.90
2017-10-02T05:13:39.591Z,7.50
2017-10-02T05:16:09.505Z,10.90
2017-10-02T05:18:39.456Z,6.53
2017-10-02T05:21:09.401Z,7.77
2017-10-02T05:23:39.271Z,14.10
2017-10-02T05:26:09.518Z,6.63
2017-10-02T05:28:39.401Z,10.67
2017-10-02T05:31:09.709Z,11.00
2017-10-02T05:33:39.607Z,12.27
2017-10-02T05:36:09.520Z,9.87
2017-10-02T05:38:39.424Z,13.63
2017-10-02T05:41:09.322Z,12.30
2017-10-02T05:43:39.574Z,16.27
2017-10-02T05:46:09.437Z,7.87
2017-10-02T05:48:39.350Z,9.40
2017-10-02T05:51:09.216Z,11.20
2017-10-02T05:53:39.080Z,9.70
2017-10-02T05:56:09.402Z,11.60
2017-10-02T05:58:39.315Z,7.57
2017-10-02T06:01:09.698Z,11.87
2017-10-02T06:03:39.580Z,8.60
2017-10-02T06:06:09.924Z,16.10
2017-10-02T06:08:39.809Z,8.90
2017-10-02T06:11:10.114Z,19.43
2017-10-02T06:13:39.965Z,8.53
2017-10-02T06:16:11.015Z,8.37
2017-10-02T06:18:40.882Z,13.23
2017-10-02T06:21:11.175Z,10.90
2017-10-02T06:23:41.061Z,11.20
2017-10-02T06:26:11.428Z,9.77
2017-10-02T06:28:45.149Z,10.93
2017-10-02T06:31:15.423Z,13.60
2017-10-02T06:33:45.326Z,15.70
2017-10-02T06:36:15.764Z,9.00
2017-10-02T06:38:45.713Z,10.00
2017-10-02T06:41:15.990Z,13.80
2017-10-02T06:43:45.871Z,12.87
2017-10-02T06:46:16.349Z,9.03
2017-10-02T06:48:46.289Z,9.20
2017-10-02T06:51:16.532Z,10.00
2017-10-02T06:53:46.421Z,11.33
2017-10-02T06:56:16.699Z,10.50
2017-10-02T06:58:46.560Z,9.40
2017-10-02T07:01:16.527Z,8.20
2017-10-02T07:03:46.392Z,8.47
2017-10-02T07:06:16.259Z,8.53
2017-10-02T07:08:46.482Z,11.33
2017-10-02T07:11:16.382Z,9.43
2017-10-02T07:13:46.724Z,9.60
2017-10-02T07:16:16.605Z,8.70
2017-10-02T07:18:46.501Z,8.57
2017-10-02T07:21:16.391Z,11.03
2017-10-02T07:23:46.315Z,7.30
2017-10-02T07:26:16.594Z,8.87
2017-10-02T07:28:46.475Z,10.57
2017-10-02T07:31:16.362Z,8.70
2017-10-02T07:33:46.233Z,8.67
2017-10-02T07:36:16.125Z,7.07
2017-10-02T07:38:46.483Z,14.03
2017-10-02T07:41:16.369Z,10.47
2017-10-02T07:43:46.622Z,9.37
2017-10-02T07:46:16.515Z,9.07
2017-10-02T07:48:46.454Z,6.77
2017-10-02T07:51:16.324Z,9.07
2017-10-02T07:53:46.209Z,7.43
2017-10-02T07:56:16.471Z,9.60
2017-10-02T07:58:46.470Z,7.27
2017-10-02T08:01:16.930Z,8.73
2017-10-02T08:03:46.866Z,6.73
2017-10-02T08:06:17.253Z,7.23
2017-10-02T08:08:47.173Z,6.80
2017-10-02T08:11:17.422Z,6.83
2017-10-02T08:13:47.373Z,11.80
2017-10-02T08:16:17.664Z,8.10
2017-10-02T08:18:47.578Z,6.50
2017-10-02T08:21:17.470Z,6.97
2017-10-02T08:23:47.380Z,8.60
2017-10-02T08:26:17.245Z,7.53
2017-10-02T08:28:47.601Z,6.37
2017-10-02T08:31:17.591Z,7.70
2017-10-02T08:33:47.957Z,6.23
2017-10-02T08:36:17.882Z,6.83
2017-10-02T08:38:48.190Z,6.97
2017-10-02T08:41:18.086Z,5.87
2017-10-02T08:43:48.532Z,8.40
2017-10-02T08:46:18.361Z,6.10
2017-10-02T08:48:48.655Z,5.47
2017-10-02T08:51:18.585Z,5.07
2017-10-02T08:53:48.580Z,5.93
2017-10-02T08:56:18.464Z,6.60
2017-10-02T08:58:48.373Z,5.07
2017-10-02T09:01:18.728Z,4.43
2017-10-02T09:03:48.611Z,5.30
2017-10-02T09:06:18.600Z,4.60
2017-10-02T09:08:48.498Z,5.07
2017-10-02T09:11:18.380Z,5.20
2017-10-02T09:13:48.699Z,5.47
2017-10-02T09:16:18.704Z,5.40
2017-10-02T09:18:49.078Z,5.60
2017-10-02T09:21:18.983Z,5.40
2017-10-02T09:23:49.286Z,4.77
2017-10-02T09:26:19.222Z,5.60
2017-10-02T09:28:49.578Z,6.50
2017-10-02T09:31:19.438Z,6.13
2017-10-02T09:33:49.762Z,6.70
2017-10-02T09:36:19.709Z,6.07
2017-10-02T09:38:49.995Z,7.30
2017-10-02T09:41:19.917Z,5.63
2017-10-02T09:43:50.238Z,13.23
2017-10-02T09:46:20.103Z,6.20
2017-10-02T09:48:50.384Z,6.10
2017-10-02T09:51:20.259Z,7.67
2017-10-02T09:53:50.639Z,11.37
2017-10-02T09:56:20.611Z,12.10
2017-10-02T09:58:50.494Z,11.13
2017-10-02T10:01:20.402Z,10.97
2017-10-02T10:03:50.270Z,18.23
2017-10-02T10:06:20.699Z,11.40
2017-10-02T10:08:50.606Z,6.17
2017-10-02T10:11:20.931Z,7.30
2017-10-02T10:13:50.826Z,8.13
2017-10-02T10:16:21.209Z,8.27
2017-10-02T10:18:51.131Z,9.40
2017-10-02T10:21:21.362Z,12.70
2017-10-02T10:23:51.304Z,8.23
2017-10-02T10:26:21.560Z,6.60
2017-10-02T10:28:51.458Z,7.73
2017-10-02T10:31:21.493Z,6.93
2017-10-02T10:33:51.369Z,9.60
2017-10-02T10:36:21.302Z,12.77
2017-10-02T10:38:51.580Z,11.67
2017-10-02T10:41:21.527Z,10.47
2017-10-02T10:43:51.453Z,8.80
2017-10-02T10:46:21.416Z,11.40
2017-10-02T10:48:51.318Z,10.73
2017-10-02T10:51:22.362Z,10.40
2017-10-02T10:53:52.270Z,12.77
2017-10-02T10:56:22.582Z,13.20
2017-10-02T10:58:52.483Z,11.93
2017-10-02T11:01:22.393Z,12.60
2017-10-02T11:03:52.234Z,7.60
2017-10-02T11:06:22.117Z,9.67
2017-10-02T11:08:52.430Z,14.73
2017-10-02T11:11:22.325Z,8.60
2017-10-02T11:13:52.703Z,14.93
2017-10-02T11:16:22.647Z,13.27
2017-10-02T11:18:52.511Z,13.70
2017-10-02T11:21:22.380Z,17.80
2017-10-02T11:23:52.246Z,9.00
2017-10-02T11:26:22.539Z,13.10
2017-10-02T11:28:52.398Z,10.83
2017-10-02T11:31:22.778Z,15.47
2017-10-02T11:33:52.659Z,18.80
2017-10-02T11:36:22.909Z,12.83
2017-10-02T11:38:52.800Z,17.07
2017-10-02T11:41:23.165Z,10.77
2017-10-02T11:43:53.208Z,23.87
2017-10-02T11:46:23.449Z,15.80
2017-10-02T11:48:53.320Z,23.47
2017-10-02T11:51:23.625Z,17.53
2017-10-02T11:53:53.558Z,17.20
2017-10-02T11:56:23.457Z,19.10
2017-10-02T11:58:53.465Z,11.03
2017-10-02T12:01:23.423Z,15.33
2017-10-02T12:03:53.709Z,18.00
2017-10-02T12:06:23.624Z,15.03
2017-10-02T12:08:53.503Z,17.93
2017-10-02T12:11:23.410Z,16.20
2017-10-02T12:13:53.288Z,23.13
2017-10-02T12:16:23.573Z,18.83
2017-10-02T12:18:53.462Z,23.90
2017-10-02T12:21:23.355Z,24.97
2017-10-02T12:23:53.273Z,26.63
2017-10-02T12:26:23.154Z,23.00
2017-10-02T12:28:53.447Z,19.67
2017-10-02T12:31:23.447Z,21.40
2017-10-02T12:33:53.926Z,23.43
2017-10-02T12:36:23.805Z,16.47
2017-10-02T12:38:54.122Z,34.93
2017-10-02T12:41:23.994Z,22.07
2017-10-02T12:43:54.204Z,18.03
2017-10-02T12:46:24.149Z,23.97
2017-10-02T12:48:54.396Z,17.73
2017-10-02T12:51:24.247Z,25.80
2017-10-02T12:53:54.562Z,26.60
2017-10-02T12:56:24.460Z,31.10
2017-10-02T12:58:54.847Z,21.07
2017-10-02T13:01:24.702Z,17.43
2017-10-02T13:03:55.031Z,25.90
2017-10-02T13:06:24.912Z,22.53
2017-10-02T13:08:55.227Z,14.00
2017-10-02T13:11:25.161Z,21.30
2017-10-02T13:13:55.482Z,23.50
2017-10-02T13:16:25.382Z,20.83
2017-10-02T13:18:55.575Z,26.70
2017-10-02T13:21:25.456Z,19.87
2017-10-02T13:23:55.368Z,24.00
2017-10-02T13:26:25.244Z,17.77
2017-10-02T13:28:55.183Z,21.43
2017-10-02T13:31:25.555Z,24.23
2017-10-02T13:33:56.255Z,24.97
2017-10-02T13:36:26.559Z,23.27
2017-10-02T13:38:56.448Z,24.83
2017-10-02T13:41:26.784Z,29.90
2017-10-02T13:43:56.677Z,26.30
2017-10-02T13:46:27.034Z,36.93
2017-10-02T13:48:56.951Z,22.17
2017-10-02T13:51:27.280Z,30.43
2017-10-02T13:53:57.161Z,31.10
2017-10-02T13:56:27.497Z,23.80
2017-10-02T13:58:57.379Z,29.13
2017-10-02T14:01:27.608Z,22.60
2017-10-02T14:03:57.569Z,21.80
2017-10-02T14:06:27.536Z,24.40
2017-10-02T14:08:57.461Z,25.80
2017-10-02T14:11:27.322Z,23.00
2017-10-02T14:13:57.582Z,22.60
2017-10-02T14:16:27.459Z,18.37
2017-10-02T14:18:57.347Z,20.17
2017-10-02T14:21:27.213Z,25.53
2017-10-02T14:23:57.114Z,22.53
2017-10-02T14:26:27.319Z,21.40
2017-10-02T14:28:57.262Z,27.87
2017-10-02T14:31:27.625Z,24.93
2017-10-02T14:33:57.498Z,28.93
2017-10-02T14:36:27.779Z,23.30
2017-10-02T14:38:57.650Z,33.53
2017-10-02T14:41:27.543Z,25.77
2017-10-02T14:43:57.449Z,27.60
2017-10-02T14:46:27.319Z,28.53
2017-10-02T14:48:57.570Z,39.03
2017-10-02T14:51:27.442Z,24.00
2017-10-02T14:53:57.358Z,26.73
2017-10-02T14:56:27.265Z,25.77
2017-10-02T14:58:57.127Z,29.30
2017-10-02T15:01:27.369Z,28.83
2017-10-02T15:03:57.293Z,25.47
2017-10-02T15:06:27.698Z,32.57
2017-10-02T15:08:57.617Z,21.60
2017-10-02T15:11:27.988Z,24.53
2017-10-02T15:13:57.835Z,28.63
2017-10-02T15:16:28.114Z,32.03
2017-10-02T15:18:57.994Z,27.97
2017-10-02T15:21:28.224Z,27.43
2017-10-02T15:23:58.110Z,19.50
2017-10-02T15:26:28.355Z,22.90
2017-10-02T15:28:58.228Z,24.57
2017-10-02T15:31:28.483Z,21.10
2017-10-02T15:33:58.378Z,23.20
2017-10-02T15:36:28.660Z,30.03
2017-10-02T15:38:58.512Z,22.63
2017-10-02T15:41:28.398Z,27.53
2017-10-02T15:43:58.292Z,23.13
2017-10-02T15:46:28.157Z,20.50
2017-10-02T15:48:58.406Z,35.07
2017-10-02T15:51:28.296Z,26.53
2017-10-02T15:53:58.663Z,24.97
2017-10-02T15:56:28.540Z,20.93
2017-10-02T15:58:58.549Z,21.80
2017-10-02T16:01:28.446Z,29.30
2017-10-02T16:03:58.371Z,21.37
2017-10-02T16:06:28.851Z,22.73
2017-10-02T16:08:58.776Z,22.80
2017-10-02T16:11:30.214Z,30.40
2017-10-02T16:14:00.186Z,23.20
2017-10-02T16:16:30.115Z,21.67
2017-10-02T16:19:00.014Z,30.50
2017-10-02T16:21:29.922Z,30.07
2017-10-02T16:24:00.199Z,25.07
2017-10-02T16:26:30.063Z,25.63
2017-10-02T16:29:00.342Z,30.70
2017-10-02T16:31:30.302Z,28.23
2017-10-02T16:34:00.617Z,26.63
2017-10-02T16:36:30.644Z,36.70
2017-10-02T16:39:02.896Z,28.10
2017-10-02T16:41:33.042Z,36.80
2017-10-02T16:44:03.397Z,25.10
2017-10-02T16:46:33.304Z,31.27
2017-10-02T16:49:03.645Z,27.73
2017-10-02T16:51:33.630Z,26.17
2017-10-02T16:54:03.523Z,27.40
2017-10-02T16:56:33.436Z,24.03
2017-10-02T16:59:03.315Z,34.23
2017-10-02T17:01:33.602Z,30.47
2017-10-02T17:04:03.514Z,22.03
2017-10-02T17:06:33.418Z,29.83
2017-10-02T17:09:03.481Z,16.93
2017-10-02T17:11:33.370Z,22.80
2017-10-02T17:14:03.939Z,21.57
2017-10-02T17:16:33.837Z,23.40
2017-10-02T17:19:04.118Z,23.50
2017-10-02T17:21:34.030Z,26.70
2017-10-02T17:24:04.521Z,21.00
2017-10-02T17:26:34.569Z,21.37
2017-10-02T17:29:04.849Z,38.73
2017-10-02T17:31:34.751Z,26.50
2017-10-02T17:34:05.155Z,25.47
2017-10-02T17:36:35.141Z,23.93
2017-10-02T17:39:05.479Z,26.37
2017-10-02T17:41:35.400Z,22.40
2017-10-02T17:44:05.726Z,22.93
2017-10-02T17:46:35.680Z,24.57
2017-10-02T17:49:05.960Z,32.53
2017-10-02T17:51:35.831Z,17.33
2017-10-02T17:54:06.129Z,37.43
2017-10-02T17:56:36.051Z,16.67
2017-10-02T17:59:06.315Z,26.30
2017-10-02T18:01:36.189Z,29.10
2017-10-02T18:04:06.473Z,24.17
2017-10-02T18:06:36.398Z,22.17
2017-10-02T18:09:06.934Z,22.30
2017-10-02T18:11:36.881Z,30.63
2017-10-02T18:14:07.144Z,22.10
2017-10-02T18:16:37.088Z,27.63
2017-10-02T18:19:07.416Z,15.50
2017-10-02T18:21:37.485Z,28.87
2017-10-02T18:24:07.841Z,24.07
2017-10-02T18:26:37.796Z,28.53
2017-10-02T18:29:08.179Z,21.20
2017-10-02T18:31:38.149Z,21.27
2017-10-02T18:34:08.560Z,42.33
2017-10-02T18:36:38.475Z,19.83
2017-10-02T18:39:08.827Z,23.80
2017-10-02T18:41:38.705Z,23.70
2017-10-02T18:44:08.984Z,26.03
2017-10-02T18:46:38.977Z,30.27
2017-10-02T18:49:09.312Z,31.23
2017-10-02T18:51:39.183Z,23.23
2017-10-02T18:54:09.647Z,23.07
2017-10-02T18:56:39.548Z,19.23
2017-10-02T18:59:09.884Z,25.07
2017-10-02T19:01:39.770Z,31.90
2017-10-02T19:04:10.201Z,22.00
2017-10-02T19:06:40.079Z,21.53
2017-10-02T19:09:10.315Z,21.30
2017-10-02T19:11:40.221Z,34.80
2017-10-02T19:14:10.599Z,22.57
2017-10-02T19:16:40.471Z,18.80
2017-10-02T19:19:10.738Z,30.93
2017-10-02T19:21:40.612Z,26.50
2017-10-02T19:24:10.771Z,25.73
2017-10-02T19:26:40.646Z,23.07
2017-10-02T19:29:10.550Z,27.23
2017-10-02T19:31:40.836Z,31.23
2017-10-02T19:34:10.746Z,19.57
2017-10-02T19:36:41.070Z,24.83
2017-10-02T19:39:10.930Z,18.10
2017-10-02T19:41:41.209Z,18.53
2017-10-02T19:44:11.123Z,29.90
2017-10-02T19:46:41.384Z,24.00
2017-10-02T19:49:11.255Z,17.97
2017-10-02T19:51:41.570Z,16.60
2017-10-02T19:54:11.447Z,27.90
2017-10-02T19:56:41.702Z,22.57
2017-10-02T19:59:11.588Z,18.20
2017-10-02T20:01:41.516Z,16.00
2017-10-02T20:04:11.358Z,24.93
2017-10-02T20:06:41.334Z,22.53
2017-10-02T20:09:11.765Z,21.93
2017-10-02T20:11:41.659Z,21.37
2017-10-02T20:14:11.599Z,25.43
2017-10-02T20:16:41.497Z,16.77
2017-10-02T20:19:11.363Z,23.90
2017-10-02T20:21:41.663Z,12.23
2017-10-02T20:24:11.518Z,26.33
2017-10-02T20:26:41.406Z,15.57
2017-10-02T20:29:11.281Z,17.00
2017-10-02T20:31:41.156Z,21.60
2017-10-02T20:34:11.544Z,71.10
2017-10-02T20:36:41.435Z,20.90
2017-10-02T20:39:11.787Z,14.10
2017-10-02T20:41:41.726Z,13.60
2017-10-02T20:44:12.008Z,10.70
2017-10-02T20:46:41.890Z,15.87
2017-10-02T20:49:12.152Z,16.90
2017-10-02T20:51:42.064Z,10.77
2017-10-02T20:54:12.435Z,15.73
2017-10-02T20:56:43.630Z,17.87
2017-10-02T20:59:13.989Z,16.60
2017-10-02T21:01:43.890Z,18.03
2017-10-02T21:04:14.300Z,13.80
2017-10-02T21:06:44.179Z,15.90
2017-10-02T21:09:14.524Z,15.90
2017-10-02T21:11:44.514Z,18.93
2017-10-02T21:14:14.871Z,17.47
2017-10-02T21:16:44.787Z,23.27
2017-10-02T21:19:15.101Z,16.07
2017-10-02T21:21:44.997Z,22.63
2017-10-02T21:24:15.264Z,25.23
2017-10-02T21:26:45.154Z,25.07
2017-10-02T21:29:15.567Z,11.90
2017-10-02T21:31:45.462Z,22.17
2017-10-02T21:34:15.747Z,13.60
2017-10-02T21:36:45.659Z,26.50
2017-10-02T21:39:15.583Z,32.70
2017-10-02T21:41:45.467Z,30.60
2017-10-02T21:44:15.397Z,22.40
2017-10-02T21:46:45.624Z,28.33
2017-10-02T21:49:15.645Z,19.83
2017-10-02T21:51:45.970Z,24.93
2017-10-02T21:54:15.963Z,21.30
2017-10-02T21:56:46.261Z,18.80
2017-10-02T21:59:16.151Z,21.70
2017-10-02T22:01:46.649Z,24.77
2017-10-02T22:04:16.626Z,23.10
2017-10-02T22:06:46.939Z,27.07
2017-10-02T22:09:16.841Z,20.03
2017-10-02T22:11:47.246Z,23.47
2017-10-02T22:14:17.228Z,13.07
2017-10-02T22:16:47.548Z,33.60
2017-10-02T22:19:17.574Z,16.43
2017-10-02T22:21:47.906Z,28.70
2017-10-02T22:24:17.822Z,20.10
2017-10-02T22:26:48.128Z,18.43
2017-10-02T22:29:17.994Z,23.43
2017-10-02T22:31:48.397Z,23.27
2017-10-02T22:34:18.277Z,27.27
2017-10-02T22:36:48.638Z,41.57
2017-10-02T22:39:18.553Z,19.87
2017-10-02T22:41:48.807Z,19.63
2017-10-02T22:44:18.674Z,23.80
2017-10-02T22:46:48.979Z,16.00
2017-10-02T22:49:18.834Z,17.10
2017-10-02T22:51:49.113Z,20.93
2017-10-02T22:54:19.057Z,23.70
2017-10-02T22:56:49.363Z,17.30
2017-10-02T22:59:19.226Z,20.80
2017-10-02T23:01:49.483Z,28.20
2017-10-02T23:04:19.369Z,18.13
2017-10-02T23:06:49.620Z,19.33
2017-10-02T23:09:19.513Z,20.27
2017-10-02T23:11:49.434Z,16.73
2017-10-02T23:14:19.306Z,27.17
2017-10-02T23:16:49.194Z,18.80
2017-10-02T23:19:19.507Z,25.50
2017-10-02T23:21:49.379Z,19.77
2017-10-02T23:24:34.502Z,28.53
2017-10-02T23:27:04.442Z,16.67
2017-10-02T23:29:34.723Z,20.90
2017-10-02T23:32:04.650Z,21.07
2017-10-02T23:34:35.082Z,18.20
2017-10-02T23:37:04.957Z,21.97
2017-10-02T23:39:35.298Z,18.27
2017-10-02T23:42:05.172Z,19.40
2017-10-02T23:44:35.462Z,21.10
2017-10-02T23:47:05.333Z,16.13
2017-10-02T23:49:35.626Z,23.03
2017-10-02T23:52:05.517Z,22.03
2017-10-02T23:54:35.402Z,15.67
2017-10-02T23:57:05.275Z,17.60
2017-10-02T23:59:35.213Z,17.50
